Torrington, WY

2:58 PM MDT on September 16, 2014 (GMT -0600)
Torrington Main Street Market | Change Station
CLOSE
Current Station
Personal Weather Station
Location: Torrington, WY
Elevation: 4094 ft
Nearby Weather Stations

Elev 4094 ft 42.06 °N, 104.18 °W | Updated 1 minute ago

Clear
Clear
89.5 °F
Feels Like 86 °F
N
0.0
Wind Variable Wind from WSW
Gusts 1.0 mph

Today
High -- | Low -- °F
--% Chance of Precip.
Yesterday
High -- | Low -- °F
Precip. -- in
6:37 AM 7:04 PM
Last Quarter, 42% visible
Pressure 29.93 in
Visibility 10.0 miles
Clouds Clear
Heat Index 86 °F
Dew Point 42 °F
Humidity 19%
Rainfall 0.00 in
Snow Depth 1 in , 0 in , 0 in
UV 8 out of 12
Pollen 6.40 out of 12
Air Quality Not available.
Flu Activity Not available.
METAR KTOR 161953Z AUTO 20006KT 10SM CLR 29/08 A3005 RMK AO2 SLP133 T02890083

More Conditions Fewer Conditions

Pressure 29.93 in
Visibility 10.0 miles
Clouds Clear
Heat Index 86 °F
Dew Point 42 °F
Humidity 19%
Rainfall 0.00 in
Snow Depth 1 in , 0 in , 0 in
UV 8 out of 12
Pollen 6.40 out of 12
Air Quality Not available.
Flu Activity Not available.
METAR KTOR 161953Z AUTO 20006KT 10SM CLR 29/08 A3005 RMK AO2 SLP133 T02890083

More Conditions Fewer Conditions

10-Day Weather Forecast

Almanac

Astronomy

Sep. 16, 2014 Rise Set
Actual Time 6:37 AM MDT 7:04 PM MDT
Civil Twilight 6:09 AM MDT 7:32 PM MDT
Nautical Twilight 5:36 AM MDT 8:05 PM MDT
Astronomical Twilight 5:02 AM MDT 8:39 PM MDT
Moon No Moon Rise 2:34 PM MDT
Length of Visible Light 13h 22m
Length of Day
12h 26m
Tomorrow will be 2m 48s shorter.
Last Quarter, 42% of the Moon is Illuminated
Today
Last Quarter
Sep 24
New
Oct 1
First Quarter
Oct 8
Full
Oct 15
Last Quarter

Today's Extremes

State Highs State Lows

Community

WunderPhotos

Upload Photos

1,753,882 photos uploaded!

Nearby

Snow Depth

Station Depth Elevation
Blind Bull Summit 1 in 8900 ft
Spring Creek Divide 0 in 9000 ft
Hams Fork 0 in 7840 ft
Salt River Summit 0 in 7600 ft
Thumb Divide 0 in 7980 ft

Earthquake Activity

City Distance Mag. Time & Date
No recent earthquake activity has been reported nearby.
Minimum magnitude displayed is 2.5.

Coastal Water Temperatures

Place Temperature
No Stations Reporting

Nearby Weather Stations